Hovedside
METAR-TAF:

METAR-TAF

Lufthavner :

Jönköping, Sverige

Jönköping lufthavn

breddegrad: 57-46N, lengdegrad: 014-05E, høyde over havet: 226 m

Gjeldene værobservasjon

Denne rapporten ble laget for 30 minutter siden, klokken 13:20 UTC
Vind 15 kt fra Nord
Temperatur -9°C
Luftfuktighet 85%
Trykk 1037 hPa
Sikt: 2300 m
lett snø

METAR: ESGJ 251320Z 01015KT 2300 -SN VV019 M09/M11 Q1037 R01/710070

Tid: 14:50 (13:50 UTC)

Varsel

Denne rapporten ble laget for 2 timer og 20 minutter siden, klokken 11:30 UTC
Varsel gyldig fra 25. klokken 12 UTC til 25. klokken 21 UTC
Vind 12 kt fra Nordøst
Sikt 10 km eller mer
Spredte skyer i en høyde av 1000 ft
lett snø
Sannsynlighet 40%
fra 25. klokken 12 UTC til 25. klokken 21 UTC
Sikt: 4000 m
Brutte skyer i en høyde av 800 ft

TAF: ESGJ 251130Z 2512/2521 04012KT 9999 -SN SCT010 PROB40 2512/2521 4000 BKN008

Værobservasjoner og værvarsel for over 4000 flyplasser (METAR- og TAF-rapporter).

Tilgjengelige stasjoner er representert av de røde og gule prikkene på kartet.

Hold musepekeren over prikken for å se navnet på stasjonen.

Klikk så for å se værobservasjoner og -varsler.

For å forandre kartet kan du klikke på den grønne knappen med svart kryss for å zoome inn, på den grønne knappen med strek for å zoome ut, eller på de grønne pilene for å se tilstøtende kart.


METAR-TAF: